createdAt,value
2018-05-04T00:00:12.813Z,8.68
2018-05-04T00:01:12.735Z,8.68
2018-05-04T00:02:12.660Z,8.69
2018-05-04T00:03:12.584Z,8.76
2018-05-04T00:04:12.503Z,8.84
2018-05-04T00:05:12.425Z,8.76
2018-05-04T00:06:12.347Z,8.80
2018-05-04T00:07:12.269Z,8.79
2018-05-04T00:08:12.192Z,8.80
2018-05-04T00:09:12.115Z,8.87
2018-05-04T00:10:12.038Z,8.91
2018-05-04T00:11:11.963Z,8.87
2018-05-04T00:12:11.882Z,8.94
2018-05-04T00:13:11.805Z,8.98
2018-05-04T00:14:11.728Z,9.05
2018-05-04T00:15:11.651Z,9.02
2018-05-04T00:16:11.575Z,8.98
2018-05-04T00:17:11.496Z,9.12
2018-05-04T00:18:11.419Z,9.16
2018-05-04T00:19:11.342Z,9.16
2018-05-04T00:20:11.263Z,9.14
2018-05-04T00:21:11.187Z,9.16
2018-05-04T00:22:11.109Z,9.17
2018-05-04T00:23:11.032Z,9.02
2018-05-04T00:24:10.957Z,9.02
2018-05-04T00:25:10.878Z,8.94
2018-05-04T00:26:10.799Z,8.93
2018-05-04T00:27:10.723Z,8.95
2018-05-04T00:28:10.655Z,8.90
2018-05-04T00:29:10.567Z,8.80
2018-05-04T00:30:10.491Z,8.85
2018-05-04T00:31:10.417Z,8.80
2018-05-04T00:32:10.337Z,8.80
2018-05-04T00:33:10.260Z,8.80
2018-05-04T00:34:10.181Z,8.77
2018-05-04T00:35:10.105Z,8.66
2018-05-04T00:36:10.026Z,8.69
2018-05-04T00:37:09.950Z,8.68
2018-05-04T00:38:09.873Z,8.73
2018-05-04T00:39:09.796Z,8.72
2018-05-04T00:40:09.718Z,8.68
2018-05-04T00:41:09.640Z,8.57
2018-05-04T00:42:09.562Z,8.55
2018-05-04T00:43:09.492Z,8.61
2018-05-04T00:44:09.407Z,8.51
2018-05-04T00:45:09.336Z,8.52
2018-05-04T00:46:09.254Z,8.40
2018-05-04T00:47:09.177Z,8.40
2018-05-04T00:48:09.097Z,8.37
2018-05-04T00:49:09.020Z,8.30
2018-05-04T00:50:08.944Z,8.24
2018-05-04T00:51:08.866Z,8.32
2018-05-04T00:52:08.787Z,8.24
2018-05-04T00:53:08.710Z,8.22
2018-05-04T00:54:08.633Z,8.19
2018-05-04T00:55:08.556Z,8.21
2018-05-04T00:56:08.483Z,8.21
2018-05-04T00:57:08.399Z,8.14
2018-05-04T00:58:08.323Z,8.06
2018-05-04T00:59:08.246Z,8.14
2018-05-04T01:00:08.166Z,8.12
2018-05-04T01:01:08.093Z,8.12
2018-05-04T01:02:08.013Z,8.15
2018-05-04T01:03:07.935Z,8.09
2018-05-04T01:04:07.857Z,7.99
2018-05-04T01:05:07.779Z,8.06
2018-05-04T01:06:07.701Z,7.97
2018-05-04T01:07:07.624Z,8.09
2018-05-04T01:08:07.545Z,7.97
2018-05-04T01:09:07.468Z,7.97
2018-05-04T01:10:07.393Z,7.83
2018-05-04T01:11:07.312Z,7.86
2018-05-04T01:12:07.233Z,7.85
2018-05-04T01:13:07.156Z,7.88
2018-05-04T01:14:07.078Z,7.82
2018-05-04T01:15:07.001Z,7.78
2018-05-04T01:16:06.921Z,7.73
2018-05-04T01:17:06.844Z,7.76
2018-05-04T01:18:06.767Z,7.79
2018-05-04T01:19:06.688Z,7.70
2018-05-04T01:20:06.609Z,7.82
2018-05-04T01:21:06.533Z,7.75
2018-05-04T01:22:06.455Z,7.63
2018-05-04T01:23:06.377Z,7.68
2018-05-04T01:24:06.309Z,7.76
2018-05-04T01:25:06.219Z,7.60
2018-05-04T01:26:06.142Z,7.63
2018-05-04T01:27:06.064Z,7.60
2018-05-04T01:28:05.985Z,7.67
2018-05-04T01:29:05.905Z,7.75
2018-05-04T01:30:05.827Z,7.72
2018-05-04T01:31:05.750Z,7.57
2018-05-04T01:32:05.671Z,7.60
2018-05-04T01:33:05.594Z,7.52
2018-05-04T01:34:05.516Z,7.47
2018-05-04T01:35:05.438Z,7.48
2018-05-04T01:36:05.359Z,7.48
2018-05-04T01:37:05.281Z,7.41
2018-05-04T01:38:05.202Z,7.39
2018-05-04T01:39:05.133Z,7.30
2018-05-04T01:40:05.046Z,7.34
2018-05-04T01:41:04.968Z,7.37
2018-05-04T01:42:04.890Z,7.23
2018-05-04T01:43:04.812Z,7.27
2018-05-04T01:44:04.733Z,7.37
2018-05-04T01:45:04.656Z,7.35
2018-05-04T01:46:04.576Z,7.38
2018-05-04T01:47:04.500Z,7.37
2018-05-04T01:48:04.422Z,7.37
2018-05-04T01:49:04.342Z,7.37
2018-05-04T01:50:04.265Z,7.37
2018-05-04T01:51:04.185Z,7.34
2018-05-04T01:52:04.112Z,7.31
2018-05-04T01:53:04.027Z,7.31
2018-05-04T01:54:03.950Z,7.34
2018-05-04T01:55:03.872Z,7.35
2018-05-04T01:56:03.794Z,7.38
2018-05-04T01:57:03.714Z,7.26
2018-05-04T01:58:03.636Z,7.20
2018-05-04T01:59:03.558Z,7.26
2018-05-04T02:00:03.478Z,7.26
2018-05-04T02:01:03.400Z,7.24
2018-05-04T02:02:03.322Z,7.23
2018-05-04T02:03:03.244Z,7.11
2018-05-04T02:04:03.165Z,7.19
2018-05-04T02:05:03.087Z,7.13
2018-05-04T02:06:03.008Z,7.11
2018-05-04T02:07:02.933Z,7.08
2018-05-04T02:08:02.851Z,7.08
2018-05-04T02:09:02.772Z,7.03
2018-05-04T02:10:02.694Z,7.03
2018-05-04T02:11:02.615Z,7.05
2018-05-04T02:12:02.534Z,7.02
2018-05-04T02:13:02.457Z,6.94
2018-05-04T02:14:02.379Z,7.06
2018-05-04T02:15:02.301Z,6.96
2018-05-04T02:16:02.224Z,7.03
2018-05-04T02:17:02.142Z,6.96
2018-05-04T02:18:02.067Z,7.02
2018-05-04T02:19:01.986Z,6.94
2018-05-04T02:20:01.906Z,6.91
2018-05-04T02:21:01.827Z,6.91
2018-05-04T02:22:01.749Z,6.99
2018-05-04T02:23:01.671Z,6.98
2018-05-04T02:24:01.591Z,6.99
2018-05-04T02:25:01.518Z,6.93
2018-05-04T02:26:01.434Z,7.09
2018-05-04T02:27:01.357Z,6.98
2018-05-04T02:28:01.280Z,7.01
2018-05-04T02:29:01.196Z,6.91
2018-05-04T02:30:01.119Z,6.88
2018-05-04T02:31:01.041Z,6.83
2018-05-04T02:32:00.961Z,6.84
2018-05-04T02:33:00.883Z,6.88
2018-05-04T02:34:00.804Z,6.94
2018-05-04T02:35:00.727Z,6.87
2018-05-04T02:36:00.645Z,6.90
2018-05-04T02:37:00.868Z,6.86
2018-05-04T02:38:00.488Z,6.80
2018-05-04T02:39:00.410Z,6.83
2018-05-04T02:40:00.329Z,6.73
2018-05-04T02:41:00.251Z,6.81
2018-05-04T02:42:00.173Z,6.83
2018-05-04T02:43:00.093Z,6.75
2018-05-04T02:44:00.015Z,6.70
2018-05-04T02:44:59.937Z,6.81
2018-05-04T02:45:59.859Z,6.75
2018-05-04T02:46:59.779Z,6.75
2018-05-04T02:47:59.698Z,6.69
2018-05-04T02:48:59.620Z,6.76
2018-05-04T02:49:59.541Z,6.70
2018-05-04T02:50:59.464Z,6.72
2018-05-04T02:51:59.383Z,6.68
2018-05-04T02:52:59.304Z,6.68
2018-05-04T02:53:59.225Z,6.72
2018-05-04T02:54:59.146Z,6.72
2018-05-04T02:55:59.106Z,6.73
2018-05-04T02:56:58.989Z,6.66
2018-05-04T02:57:58.909Z,6.63
2018-05-04T02:58:58.834Z,6.63
2018-05-04T02:59:58.751Z,6.69
2018-05-04T03:00:58.671Z,6.73
2018-05-04T03:01:58.594Z,6.73
2018-05-04T03:02:58.514Z,6.75
2018-05-04T03:03:58.435Z,6.72
2018-05-04T03:04:58.355Z,6.70
2018-05-04T03:05:58.281Z,6.72
2018-05-04T03:06:58.202Z,6.72
2018-05-04T03:07:58.118Z,6.72
2018-05-04T03:08:58.039Z,6.65
2018-05-04T03:09:57.960Z,6.69
2018-05-04T03:10:57.890Z,6.57
2018-05-04T03:11:57.802Z,6.51
2018-05-04T03:12:57.723Z,6.57
2018-05-04T03:13:57.644Z,6.68
2018-05-04T03:14:57.568Z,6.65
2018-05-04T03:15:57.485Z,6.55
2018-05-04T03:16:57.406Z,6.55
2018-05-04T03:17:57.327Z,6.65
2018-05-04T03:18:57.250Z,6.52
2018-05-04T03:19:57.168Z,6.54
2018-05-04T03:20:57.093Z,6.59
2018-05-04T03:21:57.025Z,6.50
2018-05-04T03:22:56.934Z,6.48
2018-05-04T03:23:56.852Z,6.41
2018-05-04T03:24:56.772Z,6.37
2018-05-04T03:25:56.693Z,6.37
2018-05-04T03:26:56.615Z,6.36
2018-05-04T03:27:56.534Z,6.45
2018-05-04T03:28:56.456Z,6.36
2018-05-04T03:29:56.378Z,6.34
2018-05-04T03:30:56.298Z,6.34
2018-05-04T03:31:56.220Z,6.34
2018-05-04T03:32:56.140Z,6.37
2018-05-04T03:33:56.060Z,6.36
2018-05-04T03:34:55.980Z,6.37
2018-05-04T03:35:55.901Z,6.34
2018-05-04T03:36:55.822Z,6.47
2018-05-04T03:37:55.743Z,6.36
2018-05-04T03:38:55.663Z,6.37
2018-05-04T03:39:55.583Z,6.34
2018-05-04T03:40:55.504Z,6.24
2018-05-04T03:41:55.425Z,6.29
2018-05-04T03:42:55.412Z,6.37
2018-05-04T03:43:55.269Z,6.36
2018-05-04T03:44:55.233Z,6.39
2018-05-04T03:45:55.108Z,6.32
2018-05-04T03:46:55.030Z,6.39
2018-05-04T03:47:54.947Z,6.33
2018-05-04T03:48:54.879Z,6.30
2018-05-04T03:49:54.790Z,6.27
2018-05-04T03:50:54.716Z,6.22
2018-05-04T03:51:54.632Z,6.24
2018-05-04T03:52:54.561Z,6.41
2018-05-04T03:53:54.477Z,6.37
2018-05-04T03:54:54.396Z,6.36
2018-05-04T03:55:54.314Z,6.36
2018-05-04T03:56:54.235Z,6.29
2018-05-04T03:57:54.157Z,6.24
2018-05-04T03:58:54.076Z,6.24
2018-05-04T03:59:53.996Z,6.30
2018-05-04T04:00:53.917Z,6.27
2018-05-04T04:01:53.838Z,6.24
2018-05-04T04:02:53.759Z,6.18
2018-05-04T04:03:53.686Z,6.15
2018-05-04T04:04:53.599Z,6.24
2018-05-04T04:05:53.520Z,6.13
2018-05-04T04:06:53.441Z,6.13
2018-05-04T04:07:53.361Z,6.18
2018-05-04T04:08:53.282Z,6.15
2018-05-04T04:09:53.202Z,6.13
2018-05-04T04:10:53.123Z,6.18
2018-05-04T04:11:53.043Z,6.17
2018-05-04T04:12:52.964Z,6.17
2018-05-04T04:13:52.884Z,6.14
2018-05-04T04:14:52.805Z,6.29
2018-05-04T04:15:52.725Z,6.34
2018-05-04T04:16:52.646Z,6.36
2018-05-04T04:17:52.643Z,6.30
2018-05-04T04:18:52.487Z,6.26
2018-05-04T04:19:52.407Z,6.33
2018-05-04T04:20:52.328Z,6.39
2018-05-04T04:21:52.247Z,6.34
2018-05-04T04:22:52.170Z,6.34
2018-05-04T04:23:52.090Z,6.36
2018-05-04T04:24:52.010Z,6.32
2018-05-04T04:25:51.932Z,6.30
2018-05-04T04:26:51.852Z,6.36
2018-05-04T04:27:51.772Z,6.30
2018-05-04T04:28:51.693Z,6.30
2018-05-04T04:29:51.613Z,6.42
2018-05-04T04:30:51.535Z,6.34
2018-05-04T04:31:51.453Z,6.26
2018-05-04T04:32:51.374Z,6.37
2018-05-04T04:33:51.295Z,6.42
2018-05-04T04:34:51.216Z,6.45
2018-05-04T04:35:51.136Z,6.51
2018-05-04T04:36:51.058Z,6.57
2018-05-04T04:37:50.978Z,6.59
2018-05-04T04:38:50.919Z,6.48
2018-05-04T04:39:50.818Z,6.54
2018-05-04T04:40:50.739Z,6.55
2018-05-04T04:41:50.661Z,6.52
2018-05-04T04:42:50.584Z,6.68
2018-05-04T04:43:50.501Z,6.48
2018-05-04T04:44:50.422Z,6.57
2018-05-04T04:45:50.343Z,6.65
2018-05-04T04:46:50.265Z,6.62
2018-05-04T04:47:50.184Z,6.66
2018-05-04T04:48:50.109Z,6.65
2018-05-04T04:49:50.025Z,6.70
2018-05-04T04:50:49.947Z,6.69
2018-05-04T04:51:49.868Z,6.81
2018-05-04T04:52:49.788Z,6.69
2018-05-04T04:53:49.713Z,6.73
2018-05-04T04:54:49.631Z,6.75
2018-05-04T04:55:49.551Z,6.69
2018-05-04T04:56:49.472Z,6.83
2018-05-04T04:57:49.395Z,6.86
2018-05-04T04:58:49.314Z,6.94
2018-05-04T04:59:49.234Z,6.84
2018-05-04T05:00:49.157Z,6.90
2018-05-04T05:01:49.119Z,6.87
2018-05-04T05:02:49.005Z,6.90
2018-05-04T05:03:48.918Z,6.96
2018-05-04T05:04:48.839Z,6.93
2018-05-04T05:05:48.761Z,7.05
2018-05-04T05:06:48.688Z,6.99
2018-05-04T05:07:48.605Z,6.98
2018-05-04T05:08:48.523Z,7.06
2018-05-04T05:09:48.445Z,7.17
2018-05-04T05:10:48.365Z,7.21
2018-05-04T05:11:48.286Z,7.16
2018-05-04T05:12:48.210Z,7.16
2018-05-04T05:13:48.131Z,7.23
2018-05-04T05:14:48.050Z,7.30
2018-05-04T05:15:47.971Z,7.38
2018-05-04T05:16:47.895Z,7.47
2018-05-04T05:17:47.828Z,7.42
2018-05-04T05:18:47.740Z,7.44
2018-05-04T05:19:47.656Z,7.56
2018-05-04T05:20:47.578Z,7.49
2018-05-04T05:21:47.501Z,7.67
2018-05-04T05:22:47.421Z,7.75
2018-05-04T05:23:47.375Z,7.78
2018-05-04T05:24:47.269Z,7.81
2018-05-04T05:25:47.186Z,7.94
2018-05-04T05:26:47.107Z,7.97
2018-05-04T05:27:47.028Z,7.96
2018-05-04T05:28:46.949Z,7.97
2018-05-04T05:29:46.873Z,8.07
2018-05-04T05:30:46.802Z,8.03
2018-05-04T05:31:46.716Z,8.04
2018-05-04T05:32:46.638Z,8.06
2018-05-04T05:33:46.565Z,8.04
2018-05-04T05:34:46.482Z,8.14
2018-05-04T05:35:46.403Z,8.12
2018-05-04T05:36:46.325Z,8.09
2018-05-04T05:37:46.247Z,8.14
2018-05-04T05:38:46.169Z,8.07
2018-05-04T05:39:46.091Z,8.18
2018-05-04T05:40:46.014Z,8.19
2018-05-04T05:41:45.936Z,8.21
2018-05-04T05:42:45.858Z,8.30
2018-05-04T05:43:45.780Z,8.30
2018-05-04T05:44:45.701Z,8.27
2018-05-04T05:45:45.625Z,8.29
2018-05-04T05:46:45.550Z,8.33
2018-05-04T05:47:45.468Z,8.37
2018-05-04T05:48:45.390Z,8.42
2018-05-04T05:49:45.314Z,8.47
2018-05-04T05:50:45.235Z,8.48
2018-05-04T05:51:45.170Z,8.55
2018-05-04T05:52:45.080Z,8.50
2018-05-04T05:53:45.003Z,8.62
2018-05-04T05:54:44.955Z,8.61
2018-05-04T05:55:44.857Z,8.75
2018-05-04T05:56:44.768Z,8.75
2018-05-04T05:57:44.692Z,8.84
2018-05-04T05:58:44.615Z,8.82
2018-05-04T05:59:44.537Z,8.88
2018-05-04T06:00:44.467Z,8.84
2018-05-04T06:01:44.382Z,8.87
2018-05-04T06:02:44.308Z,8.97
2018-05-04T06:03:44.228Z,9.02
2018-05-04T06:04:44.151Z,9.09
2018-05-04T06:05:44.073Z,9.09
2018-05-04T06:06:43.996Z,9.12
2018-05-04T06:07:43.918Z,9.17
2018-05-04T06:08:43.841Z,9.16
2018-05-04T06:09:43.774Z,9.27
2018-05-04T06:10:43.688Z,9.27
2018-05-04T06:11:43.610Z,9.32
2018-05-04T06:12:43.535Z,9.29
2018-05-04T06:13:43.457Z,9.37
2018-05-04T06:14:43.381Z,9.35
2018-05-04T06:15:43.301Z,9.46
2018-05-04T06:16:43.225Z,9.43
2018-05-04T06:17:43.149Z,9.47
2018-05-04T06:18:43.073Z,9.58
2018-05-04T06:19:42.994Z,9.60
2018-05-04T06:20:42.917Z,9.55
2018-05-04T06:21:42.841Z,9.67
2018-05-04T06:22:42.765Z,9.70
2018-05-04T06:23:42.688Z,9.71
2018-05-04T06:24:42.616Z,9.74
2018-05-04T06:25:42.535Z,9.85
2018-05-04T06:26:42.458Z,9.82
2018-05-04T06:27:42.381Z,9.89
2018-05-04T06:28:42.305Z,9.96
2018-05-04T06:29:42.229Z,9.89
2018-05-04T06:30:42.154Z,9.75
2018-05-04T06:31:42.075Z,9.86
2018-05-04T06:32:42.002Z,9.90
2018-05-04T06:33:41.925Z,9.89
2018-05-04T06:34:41.847Z,9.92
2018-05-04T06:35:41.770Z,9.89
2018-05-04T06:36:41.693Z,9.98
2018-05-04T06:37:41.617Z,10.03
2018-05-04T06:38:41.542Z,9.90
2018-05-04T06:39:41.497Z,10.08
2018-05-04T06:40:41.390Z,10.10
2018-05-04T06:41:41.313Z,10.16
2018-05-04T06:42:41.236Z,10.13
2018-05-04T06:43:41.160Z,10.21
2018-05-04T06:44:41.082Z,10.31
2018-05-04T06:45:41.045Z,10.41
2018-05-04T06:46:40.931Z,10.55
2018-05-04T06:47:40.854Z,10.66
2018-05-04T06:48:40.856Z,10.56
2018-05-04T06:49:40.702Z,10.56
2018-05-04T06:50:40.626Z,10.59
2018-05-04T06:51:40.549Z,10.56
2018-05-04T06:52:40.473Z,10.74
2018-05-04T06:53:40.398Z,10.81
2018-05-04T06:54:40.327Z,10.87
2018-05-04T06:55:40.251Z,10.96
2018-05-04T06:56:40.169Z,10.98
2018-05-04T06:57:40.094Z,11.16
2018-05-04T06:58:40.017Z,11.16
2018-05-04T06:59:39.940Z,11.35
2018-05-04T07:00:39.867Z,11.41
2018-05-04T07:01:39.790Z,11.38
2018-05-04T07:02:39.715Z,11.53
2018-05-04T07:03:39.639Z,11.51
2018-05-04T07:04:39.563Z,11.54
2018-05-04T07:05:39.488Z,11.72
2018-05-04T07:06:39.413Z,11.72
2018-05-04T07:07:39.339Z,11.69
2018-05-04T07:08:39.263Z,11.74
2018-05-04T07:09:39.187Z,11.68
2018-05-04T07:10:39.113Z,11.61
2018-05-04T07:11:39.037Z,11.69
2018-05-04T07:12:38.962Z,11.69
2018-05-04T07:13:38.888Z,11.81
2018-05-04T07:14:38.810Z,11.75
2018-05-04T07:15:38.735Z,11.76
2018-05-04T07:16:38.661Z,11.81
2018-05-04T07:17:38.586Z,11.94
2018-05-04T07:18:38.512Z,11.98
2018-05-04T07:19:38.436Z,11.97
2018-05-04T07:20:38.364Z,11.93
2018-05-04T07:21:38.286Z,12.06
2018-05-04T07:22:38.211Z,12.12
2018-05-04T07:23:38.139Z,12.24
2018-05-04T07:24:38.061Z,12.34
2018-05-04T07:25:37.986Z,12.42
2018-05-04T07:26:37.911Z,12.39
2018-05-04T07:27:37.882Z,12.56
2018-05-04T07:28:37.834Z,12.56
2018-05-04T07:29:37.687Z,12.55
2018-05-04T07:30:37.612Z,12.56
2018-05-04T07:31:37.536Z,12.71
2018-05-04T07:32:37.462Z,12.73
2018-05-04T07:33:37.387Z,12.61
2018-05-04T07:34:37.313Z,12.42
2018-05-04T07:35:37.237Z,12.49
2018-05-04T07:36:37.163Z,12.44
2018-05-04T07:37:37.089Z,12.51
2018-05-04T07:38:37.015Z,12.60
2018-05-04T07:39:36.938Z,12.49
2018-05-04T07:40:36.864Z,12.55
2018-05-04T07:41:36.789Z,12.48
2018-05-04T07:42:36.714Z,12.61
2018-05-04T07:43:36.638Z,12.73
2018-05-04T07:44:36.565Z,12.74
2018-05-04T07:45:36.495Z,12.85
2018-05-04T07:46:36.416Z,12.92
2018-05-04T07:47:36.343Z,13.00
2018-05-04T07:48:36.332Z,12.99
2018-05-04T07:49:36.191Z,13.06
2018-05-04T07:50:36.116Z,13.04
2018-05-04T07:51:36.040Z,13.09
2018-05-04T07:52:35.966Z,13.15
2018-05-04T07:53:35.893Z,13.28
2018-05-04T07:54:35.818Z,13.44
2018-05-04T07:55:35.742Z,13.65
2018-05-04T07:56:35.668Z,13.62
2018-05-04T07:57:35.593Z,13.78
2018-05-04T07:58:35.520Z,13.73
2018-05-04T07:59:35.445Z,13.71
2018-05-04T08:00:35.442Z,13.71
2018-05-04T08:01:35.299Z,13.76
2018-05-04T08:02:35.221Z,13.80
2018-05-04T08:03:35.147Z,13.73
2018-05-04T08:04:35.073Z,13.84
2018-05-04T08:05:34.999Z,14.03
2018-05-04T08:06:34.925Z,14.01
2018-05-04T08:07:34.851Z,13.96
2018-05-04T08:08:34.810Z,13.96
2018-05-04T08:09:34.702Z,14.13
2018-05-04T08:10:34.628Z,14.20
2018-05-04T08:11:34.558Z,14.19
2018-05-04T08:12:34.480Z,14.29
2018-05-04T08:13:34.406Z,14.36
2018-05-04T08:14:34.332Z,14.46
2018-05-04T08:15:34.259Z,14.60
2018-05-04T08:16:34.185Z,14.54
2018-05-04T08:17:34.113Z,14.78
2018-05-04T08:18:34.038Z,14.68
2018-05-04T08:19:33.965Z,14.87
2018-05-04T08:20:33.890Z,14.93
2018-05-04T08:21:33.817Z,15.03
2018-05-04T08:22:33.743Z,15.10
2018-05-04T08:23:33.690Z,15.16
2018-05-04T08:24:33.595Z,15.34
2018-05-04T08:25:33.523Z,15.26
2018-05-04T08:26:33.453Z,15.33
2018-05-04T08:27:33.380Z,15.43
2018-05-04T08:28:33.303Z,15.42
2018-05-04T08:29:33.230Z,15.46
2018-05-04T08:30:33.158Z,15.61
2018-05-04T08:31:33.087Z,15.68
2018-05-04T08:32:33.010Z,15.71
2018-05-04T08:33:32.936Z,15.68
2018-05-04T08:34:32.871Z,15.67
2018-05-04T08:35:32.792Z,15.60
2018-05-04T08:36:32.718Z,15.64
2018-05-04T08:37:32.647Z,15.71
2018-05-04T08:38:32.573Z,15.70
2018-05-04T08:39:32.500Z,15.89
2018-05-04T08:40:32.530Z,15.96
2018-05-04T08:41:32.354Z,16.01
2018-05-04T08:42:32.284Z,16.03
2018-05-04T08:43:32.208Z,15.99
2018-05-04T08:44:32.136Z,16.04
2018-05-04T08:45:32.063Z,16.08
2018-05-04T08:46:31.993Z,16.03
2018-05-04T08:47:31.918Z,16.04
2018-05-04T08:48:31.846Z,16.07
2018-05-04T08:49:31.773Z,16.14
2018-05-04T08:50:31.703Z,16.20
2018-05-04T08:51:31.628Z,16.30
2018-05-04T08:52:31.562Z,16.30
2018-05-04T08:53:31.484Z,16.41
2018-05-04T08:54:31.413Z,16.47
2018-05-04T08:55:31.340Z,16.63
2018-05-04T08:56:31.268Z,16.47
2018-05-04T08:57:31.198Z,16.30
2018-05-04T08:58:31.126Z,15.96
2018-05-04T08:59:31.055Z,15.92
2018-05-04T09:00:30.983Z,16.03
2018-05-04T09:01:30.910Z,16.12
2018-05-04T09:02:30.838Z,16.26
2018-05-04T09:03:30.766Z,15.96
2018-05-04T09:04:30.693Z,16.01
2018-05-04T09:05:30.639Z,16.10
2018-05-04T09:06:30.552Z,16.26
2018-05-04T09:07:30.479Z,16.33
2018-05-04T09:08:30.406Z,16.34
2018-05-04T09:09:30.336Z,16.44
2018-05-04T09:10:30.269Z,16.56
2018-05-04T09:11:30.193Z,16.73
2018-05-04T09:12:30.121Z,16.52
2018-05-04T09:13:30.055Z,16.57
2018-05-04T09:14:29.979Z,16.80
2018-05-04T09:15:29.907Z,16.81
2018-05-04T09:16:29.836Z,16.95
2018-05-04T09:17:29.765Z,16.82
2018-05-04T09:18:29.694Z,16.92
2018-05-04T09:19:29.623Z,17.00
2018-05-04T09:20:29.555Z,16.98
2018-05-04T09:21:29.524Z,16.71
2018-05-04T09:22:29.413Z,16.78
2018-05-04T09:23:29.339Z,16.71
2018-05-04T09:24:29.269Z,16.82
2018-05-04T09:25:29.198Z,16.80
2018-05-04T09:26:29.128Z,16.75
2018-05-04T09:27:29.061Z,16.73
2018-05-04T09:28:28.985Z,16.81
2018-05-04T09:29:28.914Z,16.95
2018-05-04T09:30:28.844Z,17.11
2018-05-04T09:31:28.772Z,17.25
2018-05-04T09:32:28.701Z,17.17
2018-05-04T09:33:28.637Z,17.07
2018-05-04T09:34:28.560Z,17.17
2018-05-04T09:35:28.489Z,17.21
2018-05-04T09:36:28.418Z,17.08
2018-05-04T09:37:28.356Z,17.08
2018-05-04T09:38:28.281Z,17.11
2018-05-04T09:39:28.206Z,17.29
2018-05-04T09:40:28.138Z,17.29
2018-05-04T09:41:28.067Z,17.33
2018-05-04T09:42:27.996Z,17.18
2018-05-04T09:43:28.015Z,17.13
2018-05-04T09:44:27.854Z,16.95
2018-05-04T09:45:27.783Z,17.05
2018-05-04T09:46:27.712Z,17.11
2018-05-04T09:47:27.646Z,17.17
2018-05-04T09:48:27.569Z,17.08
2018-05-04T09:49:27.500Z,17.17
2018-05-04T09:50:27.430Z,17.21
2018-05-04T09:51:27.358Z,17.21
2018-05-04T09:52:27.287Z,17.30
2018-05-04T09:53:27.216Z,17.21
2018-05-04T09:54:27.146Z,17.10
2018-05-04T09:55:27.074Z,17.14
2018-05-04T09:56:27.003Z,17.10
2018-05-04T09:57:26.937Z,17.21
2018-05-04T09:58:26.862Z,17.26
2018-05-04T09:59:26.790Z,17.44
2018-05-04T10:00:26.723Z,17.48
2018-05-04T10:01:26.648Z,17.39
2018-05-04T10:02:26.578Z,17.50
2018-05-04T10:03:26.541Z,17.60
2018-05-04T10:04:26.435Z,17.60
2018-05-04T10:05:26.365Z,17.76
2018-05-04T10:06:26.294Z,17.66
2018-05-04T10:07:26.221Z,17.60
2018-05-04T10:08:26.151Z,17.57
2018-05-04T10:09:26.081Z,17.71
2018-05-04T10:10:26.009Z,17.60
2018-05-04T10:11:25.938Z,17.70
2018-05-04T10:12:25.872Z,17.76
2018-05-04T10:13:25.796Z,17.91
2018-05-04T10:14:25.741Z,17.94
2018-05-04T10:15:25.653Z,17.92
2018-05-04T10:16:25.652Z,18.02
2018-05-04T10:17:25.512Z,18.02
2018-05-04T10:18:25.442Z,18.16
2018-05-04T10:19:25.381Z,17.94
2018-05-04T10:20:25.300Z,17.92
2018-05-04T10:21:25.227Z,18.10
2018-05-04T10:22:25.159Z,18.07
2018-05-04T10:23:25.085Z,17.95
2018-05-04T10:24:25.017Z,18.04
2018-05-04T10:25:24.944Z,18.22
2018-05-04T10:26:24.872Z,18.42
2018-05-04T10:27:24.802Z,18.37
2018-05-04T10:28:24.732Z,18.49
2018-05-04T10:29:24.660Z,18.58
2018-05-04T10:30:24.591Z,18.74
2018-05-04T10:31:24.577Z,18.67
2018-05-04T10:32:24.458Z,18.65
2018-05-04T10:33:24.378Z,18.68
2018-05-04T10:34:24.306Z,18.74
2018-05-04T10:35:24.235Z,18.68
2018-05-04T10:36:24.164Z,18.76
2018-05-04T10:37:24.094Z,18.97
2018-05-04T10:38:24.051Z,18.69
2018-05-04T10:39:23.952Z,18.86
2018-05-04T10:40:23.882Z,18.76
2018-05-04T10:41:23.813Z,18.65
2018-05-04T10:42:23.741Z,18.76
2018-05-04T10:43:23.669Z,18.67
2018-05-04T10:44:23.599Z,18.68
2018-05-04T10:45:23.529Z,18.67
2018-05-04T10:46:23.458Z,18.90
2018-05-04T10:47:23.387Z,18.89
2018-05-04T10:48:23.317Z,18.86
2018-05-04T10:49:23.247Z,18.90
2018-05-04T10:50:23.176Z,19.08
2018-05-04T10:51:23.105Z,19.09
2018-05-04T10:52:23.034Z,18.99
2018-05-04T10:53:22.964Z,18.97
2018-05-04T10:54:22.895Z,18.97
2018-05-04T10:55:22.823Z,19.23
2018-05-04T10:56:22.752Z,19.13
2018-05-04T10:57:22.682Z,19.31
2018-05-04T10:58:22.613Z,19.42
2018-05-04T10:59:22.542Z,19.68
2018-05-04T11:00:22.473Z,19.73
2018-05-04T11:01:22.404Z,19.65
2018-05-04T11:02:22.335Z,19.51
2018-05-04T11:03:22.263Z,19.38
2018-05-04T11:04:22.194Z,19.43
2018-05-04T11:05:22.183Z,19.69
2018-05-04T11:06:22.055Z,19.73
2018-05-04T11:07:21.984Z,19.80
2018-05-04T11:08:21.914Z,19.73
2018-05-04T11:09:21.845Z,19.72
2018-05-04T11:10:21.778Z,19.79
2018-05-04T11:11:21.705Z,20.03
2018-05-04T11:12:21.639Z,20.24
2018-05-04T11:13:21.567Z,20.06
2018-05-04T11:14:21.496Z,20.09
2018-05-04T11:15:21.427Z,20.31
2018-05-04T11:16:21.358Z,20.61
2018-05-04T11:17:21.288Z,20.65
2018-05-04T11:18:21.219Z,20.53
2018-05-04T11:19:21.204Z,20.59
2018-05-04T11:20:21.080Z,20.56
2018-05-04T11:21:21.012Z,20.54
2018-05-04T11:22:20.943Z,20.65
2018-05-04T11:23:20.872Z,20.56
2018-05-04T11:24:20.804Z,20.56
2018-05-04T11:25:20.786Z,20.50
2018-05-04T11:26:20.667Z,20.19
2018-05-04T11:27:20.597Z,20.51
2018-05-04T11:28:20.528Z,20.80
2018-05-04T11:29:20.459Z,20.98
2018-05-04T11:30:20.390Z,21.33
2018-05-04T11:31:20.321Z,21.89
2018-05-04T11:32:20.253Z,21.78
2018-05-04T11:33:20.185Z,21.85
2018-05-04T11:34:20.117Z,21.85
2018-05-04T11:35:20.049Z,22.00
2018-05-04T11:36:19.982Z,22.50
2018-05-04T11:37:19.915Z,22.34
2018-05-04T11:38:19.849Z,22.63
2018-05-04T11:39:19.780Z,22.52
2018-05-04T11:40:19.716Z,22.67
2018-05-04T11:41:19.650Z,23.37
2018-05-04T11:42:19.585Z,23.58
2018-05-04T11:43:19.519Z,23.85
2018-05-04T11:44:19.454Z,24.42
2018-05-04T11:45:19.388Z,24.12
2018-05-04T11:46:19.326Z,24.25
2018-05-04T11:47:19.261Z,24.69
2018-05-04T11:48:19.201Z,25.27
2018-05-04T11:49:19.136Z,24.57
2018-05-04T11:50:19.071Z,24.75
2018-05-04T11:51:19.008Z,24.38
2018-05-04T11:52:18.946Z,24.47
2018-05-04T11:53:18.884Z,24.90
2018-05-04T11:54:18.828Z,25.53
2018-05-04T11:55:18.782Z,25.45
2018-05-04T11:56:18.704Z,25.57
2018-05-04T11:57:18.638Z,25.42
2018-05-04T11:58:18.580Z,25.00
2018-05-04T11:59:18.519Z,24.30
2018-05-04T12:00:18.464Z,25.00
2018-05-04T12:01:18.397Z,25.65
2018-05-04T12:02:18.340Z,26.27
2018-05-04T12:03:18.277Z,26.42
2018-05-04T12:04:18.219Z,26.87
2018-05-04T12:05:18.165Z,26.24
2018-05-04T12:06:18.100Z,26.02
2018-05-04T12:07:18.041Z,25.59
2018-05-04T12:08:17.982Z,25.67
2018-05-04T12:09:17.923Z,26.11
2018-05-04T12:10:17.874Z,25.34
2018-05-04T12:11:17.807Z,25.67
2018-05-04T12:12:17.748Z,26.42
2018-05-04T12:13:17.691Z,26.97
2018-05-04T12:14:17.633Z,26.94
2018-05-04T12:15:17.574Z,26.02
2018-05-04T12:16:17.535Z,25.97
2018-05-04T12:17:17.459Z,26.34
2018-05-04T12:18:17.402Z,26.69
2018-05-04T12:19:17.343Z,26.08
2018-05-04T12:20:17.286Z,25.83
2018-05-04T12:21:17.233Z,26.16
2018-05-04T12:22:17.171Z,26.67
2018-05-04T12:23:17.117Z,26.99
2018-05-04T12:24:17.057Z,27.36
2018-05-04T12:25:17.000Z,27.16
2018-05-04T12:26:16.943Z,27.36
2018-05-04T12:27:16.884Z,27.89
2018-05-04T12:28:16.830Z,28.25
2018-05-04T12:29:16.773Z,27.65
2018-05-04T12:30:16.717Z,27.88
2018-05-04T12:31:16.707Z,28.04
2018-05-04T12:32:16.603Z,27.04
2018-05-04T12:33:16.553Z,25.65
2018-05-04T12:34:16.491Z,25.92
2018-05-04T12:35:16.434Z,26.15
2018-05-04T12:36:16.377Z,26.42
2018-05-04T12:37:16.321Z,26.64
2018-05-04T12:38:16.266Z,26.89
2018-05-04T12:39:16.208Z,26.79
2018-05-04T12:40:16.154Z,26.49
2018-05-04T12:41:16.097Z,26.42
2018-05-04T12:42:16.040Z,25.72
2018-05-04T12:43:15.982Z,25.46
2018-05-04T12:44:15.924Z,25.16
2018-05-04T12:45:15.868Z,25.64
2018-05-04T12:46:15.810Z,26.42
2018-05-04T12:47:15.752Z,26.64
2018-05-04T12:48:15.697Z,25.82
2018-05-04T12:49:15.647Z,26.21
2018-05-04T12:50:15.583Z,25.59
2018-05-04T12:51:15.525Z,24.86
2018-05-04T12:52:15.467Z,24.91
2018-05-04T12:53:15.414Z,25.60
2018-05-04T12:54:15.353Z,26.12
2018-05-04T12:55:15.295Z,26.75
2018-05-04T12:56:15.236Z,26.86
2018-05-04T12:57:15.179Z,26.77
2018-05-04T12:58:15.124Z,26.90
2018-05-04T12:59:15.064Z,27.21
2018-05-04T13:00:15.007Z,27.38
2018-05-04T13:01:14.949Z,27.46
2018-05-04T13:02:14.892Z,26.95
2018-05-04T13:03:14.834Z,26.98
2018-05-04T13:04:14.777Z,26.38